createdAt,value
2018-12-22T00:00:20.750Z,8.40
2018-12-22T00:02:47.475Z,8.40
2018-12-22T00:05:14.166Z,8.40
2018-12-22T00:07:41.107Z,8.50
2018-12-22T00:10:07.794Z,8.50
2018-12-22T00:12:34.511Z,8.50
2018-12-22T00:15:01.215Z,8.50
2018-12-22T00:17:27.934Z,8.50
2018-12-22T00:19:54.630Z,8.50
2018-12-22T00:22:21.357Z,8.50
2018-12-22T00:24:48.051Z,8.50
2018-12-22T00:27:14.772Z,8.60
2018-12-22T00:29:41.684Z,8.60
2018-12-22T00:32:08.411Z,8.60
2018-12-22T00:34:35.110Z,8.60
2018-12-22T00:37:01.830Z,8.50
2018-12-22T00:39:28.525Z,8.50
2018-12-22T00:41:55.251Z,8.50
2018-12-22T00:44:21.953Z,8.50
2018-12-22T00:46:48.679Z,8.50
2018-12-22T00:49:15.371Z,8.50
2018-12-22T00:51:42.092Z,8.50
2018-12-22T00:54:08.983Z,8.50
2018-12-22T00:56:35.734Z,8.50
2018-12-22T00:59:02.433Z,8.50
2018-12-22T01:01:29.154Z,8.50
2018-12-22T01:03:55.846Z,8.60
2018-12-22T01:06:22.586Z,8.60
2018-12-22T01:08:49.278Z,8.50
2018-12-22T01:11:16.030Z,8.40
2018-12-22T01:13:42.787Z,8.40
2018-12-22T01:16:09.502Z,8.40
2018-12-22T01:18:36.200Z,8.40
2018-12-22T01:21:02.921Z,8.30
2018-12-22T01:23:29.623Z,8.20
2018-12-22T01:25:56.347Z,8.20
2018-12-22T01:28:23.071Z,8.10
2018-12-22T01:30:49.754Z,8.00
2018-12-22T01:33:16.467Z,8.00
2018-12-22T01:35:43.159Z,7.80
2018-12-22T01:38:09.887Z,7.80
2018-12-22T01:40:36.573Z,7.70
2018-12-22T01:43:03.290Z,7.70
2018-12-22T01:45:29.991Z,7.60
2018-12-22T01:47:56.705Z,7.60
2018-12-22T01:50:23.408Z,7.60
2018-12-22T01:52:50.126Z,7.50
2018-12-22T01:55:16.850Z,7.60
2018-12-22T01:57:43.570Z,7.50
2018-12-22T02:00:10.278Z,7.50
2018-12-22T02:02:37.002Z,7.50
2018-12-22T02:05:04.113Z,7.50
2018-12-22T02:07:30.838Z,7.50
2018-12-22T02:09:57.531Z,7.50
2018-12-22T02:12:24.251Z,7.50
2018-12-22T02:14:50.949Z,7.50
2018-12-22T02:17:17.670Z,7.50
2018-12-22T02:19:44.804Z,7.50
2018-12-22T02:22:11.773Z,7.60
2018-12-22T02:24:38.483Z,7.50
2018-12-22T02:27:05.200Z,7.50
2018-12-22T02:29:31.894Z,7.60
2018-12-22T02:31:58.617Z,7.60
2018-12-22T02:34:25.321Z,7.60
2018-12-22T02:36:52.043Z,7.60
2018-12-22T02:39:18.774Z,7.60
2018-12-22T02:41:45.500Z,7.60
2018-12-22T02:44:12.189Z,7.60
2018-12-22T02:46:38.905Z,7.60
2018-12-22T02:49:05.622Z,7.60
2018-12-22T02:51:32.343Z,7.60
2018-12-22T02:53:59.031Z,7.60
2018-12-22T02:56:25.779Z,7.60
2018-12-22T02:58:52.483Z,7.50
2018-12-22T03:01:19.207Z,7.50
2018-12-22T03:03:45.935Z,7.50
2018-12-22T03:06:12.633Z,7.50
2018-12-22T03:08:39.366Z,7.40
2018-12-22T03:11:06.054Z,7.50
2018-12-22T03:13:32.788Z,7.40
2018-12-22T03:16:06.358Z,7.40
2018-12-22T03:18:33.098Z,7.40
2018-12-22T03:20:59.794Z,7.30
2018-12-22T03:23:26.517Z,7.30
2018-12-22T03:25:53.211Z,7.30
2018-12-22T03:28:20.038Z,7.20
2018-12-22T03:30:47.435Z,7.10
2018-12-22T03:33:14.160Z,7.10
2018-12-22T03:35:40.870Z,7.10
2018-12-22T03:38:07.591Z,7.10
2018-12-22T03:40:34.340Z,7.10
2018-12-22T03:43:01.062Z,7.10
2018-12-22T03:45:27.758Z,7.10
2018-12-22T03:47:54.476Z,7.10
2018-12-22T03:50:21.171Z,7.10
2018-12-22T03:52:47.895Z,7.10
2018-12-22T03:55:14.620Z,7.10
2018-12-22T03:57:41.337Z,7.10
2018-12-22T04:00:08.146Z,7.10
2018-12-22T04:02:34.887Z,7.00
2018-12-22T04:05:01.592Z,7.10
2018-12-22T04:07:28.334Z,7.10
2018-12-22T04:09:55.036Z,7.00
2018-12-22T04:12:21.755Z,7.00
2018-12-22T04:14:48.446Z,6.90
2018-12-22T04:17:15.277Z,6.90
2018-12-22T04:19:41.979Z,6.90
2018-12-22T04:22:08.708Z,6.90
2018-12-22T04:24:35.507Z,7.00
2018-12-22T04:27:02.222Z,6.90
2018-12-22T04:29:33.747Z,6.90
2018-12-22T04:31:57.663Z,6.90
2018-12-22T04:34:24.362Z,6.80
2018-12-22T04:36:51.091Z,6.80
2018-12-22T04:39:17.780Z,6.80
2018-12-22T04:41:44.504Z,6.80
2018-12-22T04:44:11.194Z,6.70
2018-12-22T04:46:37.913Z,6.70
2018-12-22T04:49:04.739Z,6.70
2018-12-22T04:51:31.653Z,6.70
2018-12-22T04:53:58.342Z,6.60
2018-12-22T04:56:25.088Z,6.60
2018-12-22T04:58:51.795Z,6.60
2018-12-22T05:01:18.491Z,6.60
2018-12-22T05:03:45.219Z,6.60
2018-12-22T05:06:12.007Z,6.60
2018-12-22T05:08:38.952Z,6.60
2018-12-22T05:11:05.642Z,6.60
2018-12-22T05:13:32.371Z,6.60
2018-12-22T05:15:59.062Z,6.60
2018-12-22T05:18:25.783Z,6.60
2018-12-22T05:20:52.484Z,6.60
2018-12-22T05:23:19.474Z,6.60
2018-12-22T05:25:46.163Z,6.60
2018-12-22T05:28:12.901Z,6.60
2018-12-22T05:30:39.586Z,6.50
2018-12-22T05:33:06.308Z,6.60
2018-12-22T05:35:32.997Z,6.60
2018-12-22T05:37:59.790Z,6.60
2018-12-22T05:40:26.534Z,6.60
2018-12-22T05:42:53.254Z,6.50
2018-12-22T05:45:20.050Z,6.50
2018-12-22T05:47:46.770Z,6.50
2018-12-22T05:50:13.470Z,6.40
2018-12-22T05:52:40.190Z,6.40
2018-12-22T05:55:06.891Z,6.40
2018-12-22T05:57:33.619Z,6.40
2018-12-22T06:00:00.991Z,6.40
2018-12-22T06:02:27.879Z,6.40
2018-12-22T06:04:54.664Z,6.40
2018-12-22T06:07:21.421Z,6.40
2018-12-22T06:09:48.122Z,6.30
2018-12-22T06:12:14.838Z,6.30
2018-12-22T06:14:41.535Z,6.30
2018-12-22T06:17:08.255Z,6.30
2018-12-22T06:19:34.938Z,6.30
2018-12-22T06:22:01.631Z,6.30
2018-12-22T06:24:28.463Z,6.30
2018-12-22T06:26:55.158Z,6.30
2018-12-22T06:29:21.873Z,6.30
2018-12-22T06:31:48.570Z,6.30
2018-12-22T06:34:15.294Z,6.30
2018-12-22T06:36:41.983Z,6.30
2018-12-22T06:39:08.711Z,6.30
2018-12-22T06:41:35.410Z,6.30
2018-12-22T06:44:02.161Z,6.30
2018-12-22T06:46:29.023Z,6.30
2018-12-22T06:48:55.743Z,6.40
2018-12-22T06:51:22.438Z,6.40
2018-12-22T06:53:49.159Z,6.40
2018-12-22T06:56:15.851Z,6.40
2018-12-22T06:58:42.593Z,6.40
2018-12-22T07:01:10.115Z,6.40
2018-12-22T07:03:36.834Z,6.40
2018-12-22T07:06:03.529Z,6.40
2018-12-22T07:08:30.251Z,6.40
2018-12-22T07:10:56.942Z,6.40
2018-12-22T07:13:23.663Z,6.30
2018-12-22T07:15:50.362Z,6.30
2018-12-22T07:18:17.086Z,6.30
2018-12-22T07:20:43.783Z,6.30
2018-12-22T07:23:10.509Z,6.30
2018-12-22T07:25:37.203Z,6.30
2018-12-22T07:28:03.950Z,6.30
2018-12-22T07:30:30.645Z,6.30
2018-12-22T07:32:57.578Z,6.30
2018-12-22T07:35:24.378Z,6.30
2018-12-22T07:37:51.094Z,6.30
2018-12-22T07:40:17.778Z,6.30
2018-12-22T07:42:44.494Z,6.30
2018-12-22T07:45:11.191Z,6.30
2018-12-22T07:47:37.915Z,6.30
2018-12-22T07:50:04.871Z,6.20
2018-12-22T07:52:31.574Z,6.20
2018-12-22T07:54:58.359Z,6.30
2018-12-22T07:57:25.359Z,6.30
2018-12-22T07:59:52.081Z,6.30
2018-12-22T08:02:18.779Z,6.30
2018-12-22T08:04:45.501Z,6.30
2018-12-22T08:07:12.190Z,6.30
2018-12-22T08:09:39.107Z,6.40
2018-12-22T08:12:05.799Z,6.40
2018-12-22T08:14:32.526Z,6.40
2018-12-22T08:16:59.222Z,6.40
2018-12-22T08:19:25.947Z,6.40
2018-12-22T08:21:52.714Z,6.50
2018-12-22T08:24:19.453Z,6.50
2018-12-22T08:26:46.151Z,6.60
2018-12-22T08:29:12.918Z,6.70
2018-12-22T08:31:39.626Z,6.70
2018-12-22T08:34:06.348Z,6.80
2018-12-22T08:36:33.043Z,6.90
2018-12-22T08:38:59.762Z,6.90
2018-12-22T08:41:26.463Z,6.90
2018-12-22T08:43:53.174Z,6.90
2018-12-22T08:46:19.886Z,6.90
2018-12-22T08:48:46.712Z,6.90
2018-12-22T08:51:13.422Z,6.90
2018-12-22T08:53:40.139Z,6.90
2018-12-22T08:56:07.026Z,6.90
2018-12-22T08:58:33.750Z,6.90
2018-12-22T09:01:00.443Z,6.90
2018-12-22T09:03:27.200Z,6.80
2018-12-22T09:05:53.906Z,6.70
2018-12-22T09:08:20.668Z,6.70
2018-12-22T09:10:47.367Z,6.60
2018-12-22T09:13:20.775Z,6.60
2018-12-22T09:15:42.807Z,6.60
2018-12-22T09:18:09.530Z,6.60
2018-12-22T09:20:36.229Z,6.60
2018-12-22T09:23:03.033Z,6.70
2018-12-22T09:25:29.786Z,6.70
2018-12-22T09:27:56.518Z,6.70
2018-12-22T09:30:23.239Z,6.70
2018-12-22T09:32:50.743Z,6.80
2018-12-22T09:35:17.463Z,6.80
2018-12-22T09:37:44.165Z,6.70
2018-12-22T09:40:10.895Z,6.80
2018-12-22T09:42:37.589Z,6.70
2018-12-22T09:45:04.840Z,6.60
2018-12-22T09:47:31.533Z,6.40
2018-12-22T09:49:58.256Z,6.40
2018-12-22T09:52:24.951Z,6.30
2018-12-22T09:54:51.695Z,6.20
2018-12-22T09:57:18.394Z,6.20
2018-12-22T09:59:45.127Z,6.10
2018-12-22T10:02:11.821Z,6.10
2018-12-22T10:04:38.542Z,6.00
2018-12-22T10:07:05.238Z,6.00
2018-12-22T10:09:32.841Z,5.80
2018-12-22T10:12:01.124Z,5.80
2018-12-22T10:14:29.200Z,5.70
2018-12-22T10:16:57.719Z,5.80
2018-12-22T10:19:24.909Z,5.70
2018-12-22T10:21:53.124Z,5.70
2018-12-22T10:24:20.268Z,5.70
2018-12-22T10:26:47.387Z,5.70
2018-12-22T10:29:14.159Z,5.70
2018-12-22T10:31:41.055Z,5.70
2018-12-22T10:34:07.778Z,5.60
2018-12-22T10:36:35.561Z,5.70
2018-12-22T10:39:04.522Z,5.70
2018-12-22T10:41:31.334Z,5.70
2018-12-22T10:43:58.066Z,5.60
2018-12-22T10:46:24.786Z,5.70
2018-12-22T10:48:51.512Z,5.80
2018-12-22T10:51:24.197Z,5.80
2018-12-22T10:53:47.578Z,5.80
2018-12-22T10:56:14.275Z,5.80
2018-12-22T10:58:41.002Z,5.90
2018-12-22T11:01:07.702Z,5.80
2018-12-22T11:03:34.551Z,5.70
2018-12-22T11:06:01.259Z,5.70
2018-12-22T11:08:28.092Z,5.80
2018-12-22T11:10:54.897Z,5.70
2018-12-22T11:13:21.705Z,5.70
2018-12-22T11:15:48.614Z,5.60
2018-12-22T11:18:15.615Z,5.50
2018-12-22T11:20:42.339Z,5.40
2018-12-22T11:23:09.044Z,5.30
2018-12-22T11:25:35.768Z,5.30
2018-12-22T11:28:02.516Z,5.10
2018-12-22T11:30:31.112Z,5.10
2018-12-22T11:32:58.106Z,5.10
2018-12-22T11:35:24.879Z,5.10
2018-12-22T11:37:51.595Z,5.10
2018-12-22T11:40:18.338Z,5.20
2018-12-22T11:42:47.884Z,5.30
2018-12-22T11:45:13.814Z,5.40
2018-12-22T11:47:42.490Z,5.50
2018-12-22T11:50:11.718Z,5.50
2018-12-22T11:52:39.527Z,5.50
2018-12-22T11:55:07.064Z,5.60
2018-12-22T11:57:33.769Z,5.70
2018-12-22T12:00:00.491Z,5.70
2018-12-22T12:02:27.190Z,5.80
2018-12-22T12:04:53.921Z,6.00
2018-12-22T12:07:20.642Z,6.20
2018-12-22T12:09:47.575Z,6.30
2018-12-22T12:12:14.271Z,6.30
2018-12-22T12:14:41.155Z,6.30
2018-12-22T12:17:12.038Z,6.40
2018-12-22T12:19:38.770Z,6.30
2018-12-22T12:22:05.470Z,6.10
2018-12-22T12:24:32.203Z,6.10
2018-12-22T12:26:58.907Z,6.00
2018-12-22T12:29:25.654Z,5.80
2018-12-22T12:31:59.339Z,5.80
2018-12-22T12:34:26.080Z,5.80
2018-12-22T12:36:52.793Z,5.80
2018-12-22T12:39:20.118Z,5.70
2018-12-22T12:41:47.340Z,5.70
2018-12-22T12:44:14.060Z,5.70
2018-12-22T12:46:42.830Z,5.70
2018-12-22T12:49:09.707Z,5.70
2018-12-22T12:51:36.558Z,5.80
2018-12-22T12:54:03.343Z,5.80
2018-12-22T12:56:30.356Z,5.90
2018-12-22T12:58:57.054Z,5.90
2018-12-22T13:01:24.483Z,6.00
2018-12-22T13:03:51.390Z,6.00
2018-12-22T13:06:18.820Z,6.00
2018-12-22T13:08:45.526Z,6.00
2018-12-22T13:11:12.255Z,6.00
2018-12-22T13:13:57.797Z,6.00
2018-12-22T13:16:24.534Z,6.00
2018-12-22T13:18:51.248Z,6.10
2018-12-22T13:21:18.011Z,6.10
2018-12-22T13:23:44.709Z,6.20
2018-12-22T13:26:11.447Z,6.20
2018-12-22T13:28:38.194Z,6.30
2018-12-22T13:31:04.918Z,6.30
2018-12-22T13:33:31.862Z,6.40
2018-12-22T13:35:58.662Z,6.40
2018-12-22T13:38:25.687Z,6.40
2018-12-22T13:40:52.430Z,6.30
2018-12-22T13:43:19.134Z,6.20
2018-12-22T13:45:45.867Z,6.10
2018-12-22T13:48:12.576Z,6.00
2018-12-22T13:50:39.794Z,6.00
2018-12-22T13:53:06.611Z,5.90
2018-12-22T13:55:33.725Z,5.80
2018-12-22T13:58:00.421Z,5.80
2018-12-22T14:00:28.265Z,5.80
2018-12-22T14:02:54.965Z,5.80
2018-12-22T14:05:21.719Z,5.70
2018-12-22T14:07:55.345Z,5.70
2018-12-22T14:10:22.074Z,5.70
2018-12-22T14:12:48.775Z,5.60
2018-12-22T14:15:16.830Z,5.60
2018-12-22T14:17:53.763Z,5.60
2018-12-22T14:20:21.068Z,5.60
2018-12-22T14:22:47.823Z,5.50
2018-12-22T14:25:16.908Z,5.50
2018-12-22T14:27:43.603Z,5.50
2018-12-22T14:30:10.711Z,5.50
2018-12-22T14:32:37.399Z,5.40
2018-12-22T14:35:08.819Z,5.40
2018-12-22T14:37:35.507Z,5.40
2018-12-22T14:40:02.397Z,5.40
2018-12-22T14:42:29.119Z,5.40
2018-12-22T14:44:55.844Z,5.40
2018-12-22T14:47:22.536Z,5.40
2018-12-22T14:49:49.258Z,5.40
2018-12-22T14:52:15.981Z,5.40
2018-12-22T14:54:42.698Z,5.40
2018-12-22T14:57:09.386Z,5.40
2018-12-22T14:59:36.555Z,5.30
2018-12-22T15:02:03.274Z,5.30
2018-12-22T15:04:29.998Z,5.30
2018-12-22T15:06:56.727Z,5.30
2018-12-22T15:09:23.419Z,5.30
2018-12-22T15:11:50.143Z,5.20
2018-12-22T15:14:16.835Z,5.20
2018-12-22T15:16:43.554Z,5.10
2018-12-22T15:19:10.260Z,5.10
2018-12-22T15:21:36.990Z,5.10
2018-12-22T15:24:04.122Z,5.10
2018-12-22T15:26:30.838Z,5.10
2018-12-22T15:28:57.537Z,5.10
2018-12-22T15:31:24.266Z,5.10
2018-12-22T15:33:50.973Z,5.10
2018-12-22T15:36:17.728Z,5.10
2018-12-22T15:38:44.418Z,5.10
2018-12-22T15:41:11.234Z,5.10
2018-12-22T15:43:37.959Z,5.10
2018-12-22T15:46:04.685Z,5.10
2018-12-22T15:48:31.379Z,5.10
2018-12-22T15:50:58.107Z,5.10
2018-12-22T15:53:24.797Z,5.10
2018-12-22T15:55:51.519Z,5.10
2018-12-22T15:58:18.219Z,5.10
2018-12-22T16:00:44.942Z,5.10
2018-12-22T16:03:11.681Z,5.10
2018-12-22T16:05:38.504Z,5.10
2018-12-22T16:08:05.319Z,5.10
2018-12-22T16:10:32.238Z,5.20
2018-12-22T16:12:58.931Z,5.20
2018-12-22T16:15:25.770Z,5.20
2018-12-22T16:17:52.462Z,5.20
2018-12-22T16:20:19.209Z,5.20
2018-12-22T16:22:48.587Z,5.30
2018-12-22T16:25:15.302Z,5.20
2018-12-22T16:27:42.037Z,5.30
2018-12-22T16:30:11.258Z,5.30
2018-12-22T16:32:37.946Z,5.30
2018-12-22T16:35:05.104Z,5.30
2018-12-22T16:37:32.007Z,5.30
2018-12-22T16:39:59.095Z,5.30
2018-12-22T16:42:25.814Z,5.30
2018-12-22T16:44:52.510Z,5.40
2018-12-22T16:47:19.242Z,5.40
2018-12-22T16:49:45.943Z,5.40
2018-12-22T16:52:12.668Z,5.40
2018-12-22T16:54:39.358Z,5.40
2018-12-22T16:57:06.074Z,5.40
2018-12-22T16:59:33.780Z,5.40
2018-12-22T17:02:10.262Z,5.50
2018-12-22T17:04:36.987Z,5.40
2018-12-22T17:07:03.721Z,5.50
2018-12-22T17:09:30.424Z,5.50
2018-12-22T17:11:57.142Z,5.50
2018-12-22T17:14:23.855Z,5.50
2018-12-22T17:16:50.750Z,5.50
2018-12-22T17:19:17.442Z,5.50
2018-12-22T17:21:48.451Z,5.50
2018-12-22T17:24:17.923Z,5.40
2018-12-22T17:26:44.995Z,5.40
2018-12-22T17:29:11.687Z,5.30
2018-12-22T17:31:39.205Z,5.20
2018-12-22T17:34:05.899Z,5.20
2018-12-22T17:36:32.675Z,5.10
2018-12-22T17:38:59.367Z,5.10
2018-12-22T17:41:26.082Z,5.00
2018-12-22T17:43:52.779Z,5.00
2018-12-22T17:46:19.494Z,5.00
2018-12-22T17:48:46.186Z,5.00
2018-12-22T17:51:12.905Z,5.00
2018-12-22T17:53:39.599Z,5.00
2018-12-22T17:56:06.322Z,5.00
2018-12-22T17:58:33.015Z,5.10
2018-12-22T18:00:59.735Z,5.20
2018-12-22T18:03:28.315Z,5.20
2018-12-22T18:05:55.253Z,5.20
2018-12-22T18:08:21.999Z,5.20
2018-12-22T18:10:48.707Z,5.20
2018-12-22T18:13:15.426Z,5.10
2018-12-22T18:15:42.118Z,5.20
2018-12-22T18:18:08.835Z,5.10
2018-12-22T18:20:35.527Z,5.10
2018-12-22T18:23:02.275Z,5.10
2018-12-22T18:25:28.957Z,5.20
2018-12-22T18:27:55.875Z,5.20
2018-12-22T18:30:22.573Z,5.30
2018-12-22T18:32:49.295Z,5.40
2018-12-22T18:35:15.988Z,5.40
2018-12-22T18:37:42.702Z,5.40
2018-12-22T18:40:11.662Z,5.40
2018-12-22T18:42:38.446Z,5.40
2018-12-22T18:45:05.862Z,5.50
2018-12-22T18:47:32.590Z,5.50
2018-12-22T18:49:59.283Z,5.60
2018-12-22T18:52:26.002Z,5.60
2018-12-22T18:54:52.707Z,5.60
2018-12-22T18:57:21.359Z,5.70
2018-12-22T18:59:48.054Z,5.60
2018-12-22T19:02:14.771Z,5.70
2018-12-22T19:04:41.480Z,5.70
2018-12-22T19:07:08.202Z,5.80
2018-12-22T19:09:35.899Z,5.80
2018-12-22T19:12:06.146Z,5.80
2018-12-22T19:14:32.843Z,5.80
2018-12-22T19:16:59.570Z,5.80
2018-12-22T19:19:26.267Z,5.80
2018-12-22T19:21:53.091Z,5.90
2018-12-22T19:24:19.786Z,5.90
2018-12-22T19:26:46.507Z,5.90
2018-12-22T19:29:13.311Z,5.90
2018-12-22T19:31:41.900Z,5.90
2018-12-22T19:34:08.750Z,5.90
2018-12-22T19:36:35.442Z,5.90
2018-12-22T19:39:02.627Z,5.90
2018-12-22T19:41:29.314Z,5.90
2018-12-22T19:43:56.043Z,5.90
2018-12-22T19:46:22.747Z,5.90
2018-12-22T19:48:49.479Z,5.90
2018-12-22T19:51:16.274Z,5.90
2018-12-22T19:53:42.995Z,5.90
2018-12-22T19:56:09.703Z,6.00
2018-12-22T19:58:36.422Z,6.00
2018-12-22T20:01:03.143Z,5.90
2018-12-22T20:03:29.838Z,6.00
2018-12-22T20:05:56.555Z,5.90
2018-12-22T20:08:23.280Z,5.90
2018-12-22T20:10:50.299Z,5.90
2018-12-22T20:13:16.998Z,5.90
2018-12-22T20:15:43.690Z,5.90
2018-12-22T20:18:10.405Z,5.90
2018-12-22T20:20:37.156Z,5.90
2018-12-22T20:23:03.885Z,5.90
2018-12-22T20:25:30.594Z,5.80
2018-12-22T20:27:57.322Z,5.80
2018-12-22T20:30:24.022Z,5.90
2018-12-22T20:32:50.747Z,5.80
2018-12-22T20:35:17.507Z,5.80
2018-12-22T20:37:44.442Z,5.80
2018-12-22T20:40:11.135Z,5.80
2018-12-22T20:42:37.860Z,5.80
2018-12-22T20:45:04.927Z,5.80
2018-12-22T20:47:31.694Z,5.80
2018-12-22T20:49:58.391Z,5.80
2018-12-22T20:52:25.115Z,5.80
2018-12-22T20:54:51.807Z,5.80
2018-12-22T20:57:18.531Z,5.80
2018-12-22T20:59:45.219Z,5.80
2018-12-22T21:02:11.953Z,5.80
2018-12-22T21:04:38.652Z,5.80
2018-12-22T21:07:05.374Z,5.80
2018-12-22T21:09:32.071Z,5.90
2018-12-22T21:11:58.794Z,5.90
2018-12-22T21:14:25.482Z,5.80
2018-12-22T21:16:52.206Z,5.90
2018-12-22T21:19:20.802Z,5.90
2018-12-22T21:21:47.725Z,5.90
2018-12-22T21:24:14.415Z,5.90
2018-12-22T21:26:41.138Z,5.90
2018-12-22T21:29:07.826Z,5.80
2018-12-22T21:31:34.523Z,5.80
2018-12-22T21:34:01.231Z,5.80
2018-12-22T21:36:27.939Z,5.80
2018-12-22T21:38:54.648Z,5.80
2018-12-22T21:41:21.358Z,5.80
2018-12-22T21:43:48.063Z,5.80
2018-12-22T21:46:15.375Z,5.80
2018-12-22T21:48:42.082Z,5.80
2018-12-22T21:51:08.790Z,5.80
2018-12-22T21:53:35.494Z,5.80
2018-12-22T21:56:02.182Z,5.80
2018-12-22T21:58:28.883Z,5.80
2018-12-22T22:00:55.582Z,5.80
2018-12-22T22:03:22.278Z,5.70
2018-12-22T22:05:48.978Z,5.80
2018-12-22T22:08:15.678Z,5.80
2018-12-22T22:10:42.371Z,5.80
2018-12-22T22:13:09.069Z,5.70
2018-12-22T22:15:35.782Z,5.80
2018-12-22T22:18:02.499Z,5.80
2018-12-22T22:20:29.191Z,5.70
2018-12-22T22:22:55.906Z,5.70
2018-12-22T22:25:24.202Z,5.80
2018-12-22T22:27:50.927Z,5.70
2018-12-22T22:30:17.635Z,5.70
2018-12-22T22:32:44.354Z,5.70
2018-12-22T22:35:11.046Z,5.70
2018-12-22T22:37:37.770Z,5.70
2018-12-22T22:40:04.459Z,5.70
2018-12-22T22:42:31.214Z,5.70
2018-12-22T22:44:57.919Z,5.70
2018-12-22T22:47:24.623Z,5.70
2018-12-22T22:49:51.405Z,5.70
2018-12-22T22:52:18.106Z,5.70
2018-12-22T22:54:44.847Z,5.70
2018-12-22T22:57:11.577Z,5.70
2018-12-22T23:02:11.914Z,5.70
2018-12-22T23:04:38.643Z,5.70
2018-12-22T23:07:05.459Z,5.70
2018-12-22T23:09:32.317Z,5.70
2018-12-22T23:11:59.035Z,5.70
2018-12-22T23:14:25.770Z,5.70
2018-12-22T23:16:52.487Z,5.60
2018-12-22T23:19:19.235Z,5.70
2018-12-22T23:21:45.979Z,5.60
2018-12-22T23:24:12.675Z,5.60
2018-12-22T23:26:39.386Z,5.60
2018-12-22T23:29:06.096Z,5.60
2018-12-22T23:31:32.879Z,5.60
2018-12-22T23:33:59.593Z,5.60
2018-12-22T23:36:26.309Z,5.60
2018-12-22T23:38:53.023Z,5.60
2018-12-22T23:41:19.746Z,5.60
2018-12-22T23:43:46.464Z,5.60
2018-12-22T23:46:13.168Z,5.60
2018-12-22T23:48:39.874Z,5.60
2018-12-22T23:51:06.575Z,5.60
2018-12-22T23:53:33.286Z,5.60
2018-12-22T23:55:59.975Z,5.60
2018-12-22T23:58:33.591Z,5.50
